Time;durP1;ratioP1;P1;durP2;ratioP2;P2;SDS_P1;SDS_P2;PMS_P1;PMS_P2;Temp;Humidity;BMP_temperature;BMP_pressure;BME280_temperature;BME280_humidity;BME280_pressure;Samples;Min_cycle;Max_cycle;Signal;HPM_P1;HPM_P2
2022/08/28 00:01:04;;;;;;;2.22;1.95;;;;;;;18.83;80.78;101323.22;4974952;28;20490;-64
2022/08/28 00:03:31;;;;;;;2.60;2.25;;;;;;;18.84;80.80;101334.97;4975286;28;20057;-64
2022/08/28 00:05:58;;;;;;;2.00;1.80;;;;;;;18.81;81.15;101336.16;4958127;28;20165;-64
2022/08/28 00:08:25;;;;;;;3.25;2.17;;;;;;;18.79;81.28;101327.25;4957978;28;20035;-64
2022/08/28 00:10:51;;;;;;;3.92;2.30;;;;;;;18.81;81.48;101329.81;4975248;28;20034;-64
2022/08/28 00:13:21;;;;;;;2.28;2.03;;;;;;;18.80;81.25;101323.50;4957479;28;20051;-64
2022/08/28 00:15:51;;;;;;;2.38;2.10;;;;;;;18.77;81.36;101318.41;4974450;28;20558;-64
2022/08/28 00:18:17;;;;;;;3.75;2.10;;;;;;;18.77;81.95;101318.41;4957520;28;20129;-65
2022/08/28 00:20:43;;;;;;;3.55;1.58;;;;;;;18.77;81.85;101323.00;4973989;28;20027;-65
2022/08/28 00:23:09;;;;;;;4.20;2.05;;;;;;;18.75;81.89;101325.88;4974704;28;20487;-64
2022/08/28 00:25:34;;;;;;;3.00;2.05;;;;;;;18.75;81.84;101317.72;4974887;28;20069;-64
2022/08/28 00:28:10;;;;;;;1.92;1.83;;;;;;;18.75;81.92;101325.88;4957030;28;20579;-64
2022/08/28 00:30:42;;;;;;;2.20;1.80;;;;;;;18.74;81.71;101345.97;4957106;28;20031;-65
2022/08/28 00:33:18;;;;;;;3.33;2.10;;;;;;;18.73;81.74;101333.38;4957174;28;20027;-63
2022/08/28 00:35:45;;;;;;;1.83;1.73;;;;;;;18.74;81.97;101335.06;4975172;28;20472;-64
2022/08/28 00:38:12;;;;;;;5.43;1.92;;;;;;;18.71;82.49;101335.41;4974911;28;20024;-65
2022/08/28 00:40:39;;;;;;;2.83;2.13;;;;;;;18.64;82.18;101323.44;4957599;28;20045;-65
2022/08/28 00:43:05;;;;;;;2.25;2.05;;;;;;;18.67;82.03;101336.75;4974178;28;20038;-65
2022/08/28 00:45:32;;;;;;;2.85;1.98;;;;;;;18.69;81.71;101325.69;4973139;28;20039;-65
2022/08/28 00:47:58;;;;;;;2.45;2.08;;;;;;;18.65;81.90;101325.16;4974908;28;20118;-65
2022/08/28 00:50:27;;;;;;;2.17;1.92;;;;;;;18.57;82.51;101325.91;4974638;28;20606;-64
2022/08/28 00:52:59;;;;;;;2.20;2.00;;;;;;;18.58;82.63;101324.06;4974360;28;20027;-63
2022/08/28 00:55:27;;;;;;;2.35;1.80;;;;;;;18.53;82.30;101329.13;4974477;28;20110;-67
2022/08/28 00:57:57;;;;;;;2.17;1.80;;;;;;;18.54;83.25;101336.28;4956539;28;20039;-65
2022/08/28 01:00:33;;;;;;;4.30;2.20;;;;;;;18.55;82.38;101335.28;4974271;28;20356;-64
2022/08/28 01:03:01;;;;;;;2.13;1.88;;;;;;;18.52;82.68;101335.59;4956923;28;20066;-64
2022/08/28 01:05:28;;;;;;;2.30;2.10;;;;;;;18.51;82.03;101339.34;4957035;28;20027;-64
2022/08/28 01:07:57;;;;;;;4.50;2.00;;;;;;;18.46;82.46;101336.22;4974111;28;20523;-65
2022/08/28 01:10:26;;;;;;;2.28;1.63;;;;;;;18.39;82.70;101340.59;4956300;28;20039;-65
2022/08/28 01:12:55;;;;;;;1.60;1.40;;;;;;;18.36;82.42;101338.22;4956782;28;20034;-65
2022/08/28 01:15:25;;;;;;;1.70;1.60;;;;;;;18.35;82.78;101345.53;4974140;28;20483;-64
2022/08/28 01:17:55;;;;;;;4.97;1.98;;;;;;;18.36;82.49;101347.22;4973878;28;20103;-65
2022/08/28 01:20:25;;;;;;;1.60;1.50;;;;;;;18.33;83.04;101342.97;4973965;28;20039;-64
2022/08/28 01:23:19;;;;;;;3.47;1.67;;;;;;;18.30;82.92;101340.53;4973754;28;20050;-64
2022/08/28 01:25:45;;;;;;;3.35;1.40;;;;;;;18.24;83.38;101349.34;4972350;28;20443;-63
2022/08/28 01:28:12;;;;;;;1.90;1.70;;;;;;;18.20;83.42;101347.97;4972949;28;20035;-64
2022/08/28 01:30:44;;;;;;;1.80;1.40;;;;;;;18.17;83.28;101348.28;4973717;28;20483;-64
2022/08/28 01:33:10;;;;;;;2.08;1.65;;;;;;;18.18;83.62;101354.56;4973713;28;20042;-65
2022/08/28 01:35:39;;;;;;;2.25;1.45;;;;;;;18.17;83.49;101347.44;4973783;28;20092;-65
2022/08/28 01:38:05;;;;;;;1.65;1.55;;;;;;;18.24;83.26;101341.19;4973537;28;20415;-64
2022/08/28 01:40:45;;;;;;;2.22;1.48;;;;;;;18.23;83.14;101342.19;4973729;28;20034;-64
2022/08/28 01:43:18;;;;;;;3.50;1.55;;;;;;;18.17;83.68;101337.41;4955894;28;20031;-65
2022/08/28 01:45:51;;;;;;;1.60;1.50;;;;;;;18.15;83.75;101341.28;4955890;28;20031;-64
2022/08/28 01:48:18;;;;;;;1.45;1.23;;;;;;;18.12;83.87;101347.88;4973647;28;20041;-64
2022/08/28 01:50:44;;;;;;;1.95;1.42;;;;;;;18.13;83.91;101333.25;4955993;28;20045;-65
2022/08/28 01:53:14;;;;;;;1.98;1.58;;;;;;;18.13;83.55;101335.13;4972995;28;20026;-64
2022/08/28 01:55:41;;;;;;;2.28;1.30;;;;;;;18.10;83.96;101335.44;4973437;28;20368;-65
2022/08/28 01:58:07;;;;;;;1.20;1.00;;;;;;;18.06;84.22;101345.81;4955666;28;20042;-64
2022/08/28 02:00:34;;;;;;;2.58;1.33;;;;;;;18.04;84.18;101336.94;4956112;28;20483;-63
2022/08/28 02:03:01;;;;;;;1.17;0.90;;;;;;;18.04;83.79;101336.94;4971953;28;20126;-65
2022/08/28 02:05:29;;;;;;;1.58;0.90;;;;;;;18.01;83.76;101338.13;4955947;28;20451;-65
2022/08/28 02:07:56;;;;;;;1.50;1.17;;;;;;;17.99;84.22;101333.84;4973441;28;20394;-66
2022/08/28 02:10:24;;;;;;;1.27;1.10;;;;;;;17.97;83.80;101331.28;4973303;28;20476;-65
2022/08/28 02:12:50;;;;;;;1.55;1.30;;;;;;;17.93;84.03;101335.31;4973555;28;20041;-66
2022/08/28 02:15:16;;;;;;;2.97;1.30;;;;;;;17.90;83.35;101326.63;4972017;28;20035;-65
2022/08/28 02:17:41;;;;;;;3.90;1.38;;;;;;;17.91;83.92;101334.63;4956065;28;20554;-64
2022/08/28 02:20:08;;;;;;;2.40;1.15;;;;;;;17.93;83.83;101331.72;4973168;28;20035;-63
2022/08/28 02:22:34;;;;;;;2.22;1.00;;;;;;;17.89;83.76;101333.06;4973134;28;20046;-66
2022/08/28 02:24:59;;;;;;;1.20;1.10;;;;;;;17.85;83.75;101328.97;4955111;28;20038;-65
2022/08/28 02:27:25;;;;;;;3.33;1.17;;;;;;;17.83;84.49;101328.25;4973078;28;20391;-65
2022/08/28 02:29:51;;;;;;;5.20;1.25;;;;;;;17.81;84.67;101331.16;4955627;28;20546;-64
2022/08/28 02:32:17;;;;;;;2.28;1.20;;;;;;;17.79;84.87;101321.41;4955791;28;20085;-65
2022/08/28 02:34:43;;;;;;;2.08;1.30;;;;;;;17.74;85.23;101330.03;4973313;28;20031;-64
2022/08/28 02:37:12;;;;;;;4.53;1.75;;;;;;;17.74;85.03;101322.72;4955507;28;20073;-64
2022/08/28 02:39:38;;;;;;;3.35;1.60;;;;;;;17.73;84.92;101329.19;4975804;28;20078;-65
2022/08/28 02:42:04;;;;;;;2.97;1.17;;;;;;;17.73;85.14;101329.19;4976627;28;20043;-64
2022/08/28 02:44:30;;;;;;;2.85;1.40;;;;;;;17.70;85.35;101323.22;4959635;28;20035;-65
2022/08/28 02:46:55;;;;;;;3.63;1.83;;;;;;;17.76;85.44;101329.88;4976951;28;20533;-64
2022/08/28 02:49:22;;;;;;;2.10;1.40;;;;;;;17.70;85.35;101324.06;4976595;28;20399;-65
2022/08/28 02:51:51;;;;;;;3.03;1.55;;;;;;;17.73;85.68;101329.19;4976564;28;20031;-65
2022/08/28 02:54:17;;;;;;;3.47;1.80;;;;;;;17.73;84.96;101329.19;4976498;28;20382;-65
2022/08/28 02:56:42;;;;;;;3.25;1.80;;;;;;;17.76;85.58;101332.59;4976702;28;20054;-64
2022/08/28 02:59:08;;;;;;;2.58;1.60;;;;;;;17.74;85.44;101325.44;4959063;28;20026;-65
2022/08/28 03:01:33;;;;;;;3.50;1.50;;;;;;;17.71;85.48;101331.22;4958871;28;20050;-65
2022/08/28 03:04:04;;;;;;;2.78;1.80;;;;;;;17.70;85.64;101324.06;4976427;28;20034;-64
2022/08/28 03:06:30;;;;;;;3.67;1.85;;;;;;;17.67;85.33;101323.50;4959048;28;20070;-65
2022/08/28 03:08:55;;;;;;;2.97;2.00;;;;;;;17.62;85.54;101313.06;4974942;28;20034;-65
2022/08/28 03:11:22;;;;;;;4.72;2.17;;;;;;;17.66;85.29;101314.47;4976129;28;20038;-65
2022/08/28 03:13:48;;;;;;;2.63;1.50;;;;;;;17.63;84.98;101328.34;4976329;28;20472;-65
2022/08/28 03:16:15;;;;;;;8.20;1.90;;;;;;;17.59;84.94;101324.25;4958879;28;20031;-64
2022/08/28 03:18:41;;;;;;;5.03;2.55;;;;;;;17.59;85.39;101332.41;4976503;28;20082;-65
2022/08/28 03:21:07;;;;;;;4.13;1.92;;;;;;;17.59;85.05;101320.69;4975938;28;20039;-65
2022/08/28 03:23:34;;;;;;;5.60;2.30;;;;;;;17.56;85.49;101315.56;4958574;28;20035;-65
2022/08/28 03:26:07;;;;;;;7.18;2.33;;;;;;;17.57;85.26;101312.69;4975914;28;20069;-68
2022/08/28 03:28:38;;;;;;;6.63;2.38;;;;;;;17.54;85.15;101307.56;4976428;28;20035;-65
2022/08/28 03:31:05;;;;;;;5.30;2.13;;;;;;;17.55;85.43;101319.28;4975597;28;20117;-64
2022/08/28 03:33:32;;;;;;;7.05;2.65;;;;;;;17.53;85.70;101303.13;4975867;28;20027;-65
2022/08/28 03:35:58;;;;;;;4.95;2.30;;;;;;;17.57;85.82;101307.25;4975975;28;20105;-65
2022/08/28 03:38:25;;;;;;;6.93;2.60;;;;;;;17.63;85.61;101316.63;4958297;28;20035;-66
2022/08/28 03:40:50;;;;;;;8.73;2.88;;;;;;;17.64;85.93;101308.34;4975744;28;20023;-64
2022/08/28 03:43:19;;;;;;;7.38;2.50;;;;;;;17.65;85.47;101318.22;4958315;28;20197;-66
2022/08/28 03:45:57;;;;;;;7.93;3.10;;;;;;;17.64;85.95;101308.34;4958280;28;20372;-67
2022/08/28 03:48:25;;;;;;;4.10;2.75;;;;;;;17.64;85.86;101313.78;4975945;28;20106;-65
2022/08/28 03:50:52;;;;;;;12.00;3.72;;;;;;;17.66;86.01;101306.31;4957077;28;20030;-65
2022/08/28 03:53:20;;;;;;;12.55;3.17;;;;;;;17.69;85.84;101307.91;4975888;28;20023;-65
2022/08/28 03:55:46;;;;;;;6.97;3.13;;;;;;;17.68;85.05;101306.19;4974453;28;20108;-64
2022/08/28 03:58:11;;;;;;;9.25;2.88;;;;;;;17.70;85.73;101306.91;4975719;28;20504;-65
2022/08/28 04:00:39;;;;;;;5.28;2.10;;;;;;;17.71;85.28;101314.88;4957988;28;20035;-65
2022/08/28 04:03:05;;;;;;;10.68;2.78;;;;;;;17.73;84.79;101310.16;4974997;28;20113;-66
2022/08/28 04:05:32;;;;;;;6.95;2.20;;;;;;;17.77;85.16;101312.56;4975389;28;20086;-64
2022/08/28 04:07:57;;;;;;;7.82;3.30;;;;;;;17.84;84.28;101316.38;4975158;28;20480;-64
2022/08/28 04:10:23;;;;;;;8.07;2.97;;;;;;;17.85;84.32;101320.81;4975267;28;20041;-65
2022/08/28 04:12:48;;;;;;;6.93;2.25;;;;;;;17.86;84.33;101319.78;4957844;28;20394;-65
2022/08/28 04:15:14;;;;;;;5.22;2.30;;;;;;;17.93;83.70;101329.00;4957692;28;20047;-65
2022/08/28 04:17:40;;;;;;;5.72;2.35;;;;;;;17.91;83.83;101331.03;4974913;28;20030;-65
2022/08/28 04:20:07;;;;;;;7.22;2.20;;;;;;;17.95;83.49;101327.00;4975161;28;20038;-66
2022/08/28 04:22:33;;;;;;;8.80;3.13;;;;;;;17.96;83.69;101323.25;4957719;28;20093;-65
2022/08/28 04:24:59;;;;;;;8.15;2.00;;;;;;;17.98;83.31;101323.97;4974680;28;20034;-65
2022/08/28 04:27:25;;;;;;;5.03;1.83;;;;;;;18.00;83.62;101321.97;4975010;28;20042;-65
2022/08/28 04:29:51;;;;;;;9.02;2.40;;;;;;;17.97;83.23;101328.56;4974835;28;20117;-65
2022/08/28 04:32:16;;;;;;;6.82;2.58;;;;;;;18.00;83.46;101319.22;4974664;28;20081;-66
2022/08/28 04:34:42;;;;;;;10.02;2.88;;;;;;;18.01;83.36;101326.38;4975301;28;20347;-64
2022/08/28 04:37:08;;;;;;;10.13;2.63;;;;;;;18.03;83.76;101336.09;4957146;28;20031;-65
2022/08/28 04:39:33;;;;;;;8.50;3.17;;;;;;;18.04;83.40;101336.94;4975053;28;20089;-64
2022/08/28 04:41:59;;;;;;;8.27;2.80;;;;;;;18.10;83.73;101341.75;4957503;28;20026;-65
2022/08/28 04:44:26;;;;;;;6.25;2.45;;;;;;;18.12;83.33;101345.16;4957317;28;20039;-65
2022/08/28 04:46:52;;;;;;;7.85;2.65;;;;;;;18.29;82.93;101347.00;4974581;28;20026;-65
2022/08/28 04:49:17;;;;;;;9.02;2.03;;;;;;;18.17;82.87;101348.28;4974308;28;20059;-65
2022/08/28 04:51:43;;;;;;;6.63;2.40;;;;;;;18.22;82.79;101339.63;4956997;28;20487;-66
2022/08/28 04:54:11;;;;;;;8.35;2.47;;;;;;;18.24;83.02;101346.63;4957106;28;20031;-66
2022/08/28 04:56:39;;;;;;;9.32;2.78;;;;;;;18.39;82.58;101346.91;4974366;28;20022;-65
2022/08/28 04:59:05;;;;;;;5.85;2.60;;;;;;;18.42;81.80;101345.72;4956633;28;20038;-67
2022/08/28 05:01:31;;;;;;;7.35;2.50;;;;;;;18.41;81.92;101333.13;4974115;28;20030;-65
2022/08/28 05:04:01;;;;;;;7.32;2.70;;;;;;;18.53;81.42;101337.31;4974259;28;20109;-64
2022/08/28 05:06:28;;;;;;;5.63;2.20;;;;;;;18.53;81.82;101332.72;4956819;28;20471;-65
2022/08/28 05:08:56;;;;;;;9.13;2.13;;;;;;;18.55;81.32;101329.81;4974353;28;20085;-65
2022/08/28 05:11:23;;;;;;;7.32;2.83;;;;;;;18.67;81.17;101331.31;4974007;28;20034;-65
2022/08/28 05:13:50;;;;;;;7.93;2.33;;;;;;;18.64;80.66;101331.59;4974066;28;20035;-65
2022/08/28 05:16:17;;;;;;;5.90;2.53;;;;;;;18.62;80.96;101342.63;4956443;28;20130;-65
2022/08/28 05:18:43;;;;;;;9.65;2.85;;;;;;;18.60;81.06;101328.31;4956684;28;20026;-65
2022/08/28 05:21:15;;;;;;;9.60;2.38;;;;;;;18.60;80.62;101338.34;4973948;28;20054;-65
2022/08/28 05:23:41;;;;;;;9.10;2.60;;;;;;;18.58;80.87;101341.25;4956610;28;20022;-64
2022/08/28 05:26:12;;;;;;;9.65;2.65;;;;;;;18.60;80.94;101338.34;4972378;28;20049;-65
2022/08/28 05:28:38;;;;;;;9.60;3.00;;;;;;;18.70;80.43;101336.41;4956271;28;20121;-64
2022/08/28 05:31:12;;;;;;;7.75;2.53;;;;;;;18.66;81.00;101354.09;4973824;28;20118;-64
2022/08/28 05:33:38;;;;;;;7.70;2.17;;;;;;;18.72;80.56;101349.88;4973850;28;20031;-65
2022/08/28 05:36:05;;;;;;;8.60;2.45;;;;;;;18.73;80.43;101341.53;4973774;28;20051;-66
2022/08/28 05:38:33;;;;;;;5.15;1.90;;;;;;;18.71;79.63;101351.75;4973941;28;20031;-66
2022/08/28 05:40:58;;;;;;;7.30;1.92;;;;;;;18.74;79.93;101345.97;4955898;28;20035;-65
2022/08/28 05:43:24;;;;;;;5.35;1.85;;;;;;;18.79;79.77;101340.88;4956327;28;20403;-66
2022/08/28 05:46:09;;;;;;;6.93;2.65;;;;;;;18.82;79.78;101351.47;4956264;28;20035;-65
2022/08/28 05:48:37;;;;;;;6.18;1.88;;;;;;;18.79;79.33;101349.03;4956052;28;20077;-65
2022/08/28 05:51:05;;;;;;;6.35;1.85;;;;;;;18.79;78.82;101346.31;4973175;28;20038;-66
2022/08/28 05:53:34;;;;;;;5.15;1.90;;;;;;;18.83;79.60;101352.31;4955970;28;20093;-64
2022/08/28 05:56:02;;;;;;;3.47;1.65;;;;;;;18.77;79.09;101342.91;4955971;28;20027;-65
2022/08/28 05:58:28;;;;;;;6.03;1.98;;;;;;;18.85;79.03;101337.53;4973716;28;20490;-65
2022/08/28 06:00:55;;;;;;;6.32;2.42;;;;;;;18.88;78.29;101347.22;4973356;28;20109;-63
2022/08/28 06:03:21;;;;;;;7.20;1.98;;;;;;;18.98;78.26;101353.44;4955672;28;20034;-65
2022/08/28 06:05:54;;;;;;;7.47;1.67;;;;;;;18.87;78.21;101357.28;4973226;28;20110;-65
2022/08/28 06:08:21;;;;;;;7.15;2.33;;;;;;;19.08;77.92;101358.72;4972921;28;20038;-65
2022/08/28 06:10:47;;;;;;;10.45;2.25;;;;;;;19.06;77.75;101352.59;4973202;28;20037;-65
2022/08/28 06:13:13;;;;;;;5.50;2.08;;;;;;;19.06;77.57;101361.63;4972348;28;20038;-65
2022/08/28 06:15:42;;;;;;;5.90;2.10;;;;;;;19.03;77.98;101347.47;4973142;28;20411;-64
2022/08/28 06:18:07;;;;;;;10.55;2.90;;;;;;;19.12;77.32;101365.56;4973117;28;20105;-65
2022/08/28 06:20:41;;;;;;;6.53;1.70;;;;;;;19.07;78.16;101365.19;4955640;28;20070;-65
2022/08/28 06:23:08;;;;;;;8.63;1.90;;;;;;;19.06;77.82;101349.88;4972941;28;20109;-64
2022/08/28 06:25:44;;;;;;;5.97;2.15;;;;;;;19.06;77.72;101360.78;4972755;28;20055;-64
2022/08/28 06:28:10;;;;;;;4.68;1.60;;;;;;;18.94;78.62;101358.31;4973026;28;20034;-64
2022/08/28 06:30:37;;;;;;;4.05;1.75;;;;;;;18.88;78.49;101356.25;4955432;28;20042;-64
2022/08/28 06:33:04;;;;;;;2.55;1.25;;;;;;;18.99;78.31;101370.63;4955239;28;20042;-65
2022/08/28 06:35:31;;;;;;;4.00;1.33;;;;;;;18.86;78.46;101371.06;4955511;28;20035;-63
2022/08/28 06:37:57;;;;;;;4.90;1.88;;;;;;;18.81;78.59;101377.00;4955580;28;20058;-64
2022/08/28 06:40:24;;;;;;;8.75;2.28;;;;;;;18.87;78.83;101373.63;4972701;28;20105;-65
2022/08/28 06:42:51;;;;;;;10.20;2.10;;;;;;;18.75;78.62;101374.91;4955411;28;20039;-65
2022/08/28 06:45:18;;;;;;;3.95;1.65;;;;;;;18.81;78.91;101368.84;4972559;28;20026;-64
2022/08/28 06:47:45;;;;;;;2.60;1.25;;;;;;;18.80;78.59;101367.09;4972492;28;20027;-65
2022/08/28 06:50:11;;;;;;;6.32;1.90;;;;;;;18.85;79.10;101364.75;4972740;28;20399;-64
2022/08/28 06:52:37;;;;;;;5.85;1.75;;;;;;;18.85;78.55;101362.03;4972697;28;20479;-64
2022/08/28 06:55:02;;;;;;;3.25;1.20;;;;;;;18.82;78.52;101376.00;4955226;28;20389;-64
2022/08/28 06:57:28;;;;;;;3.30;1.35;;;;;;;18.85;77.69;101370.22;4973124;28;20117;-64
2022/08/28 06:59:58;;;;;;;7.43;1.95;;;;;;;18.84;77.59;101357.63;4955343;28;20126;-63
2022/08/28 07:02:24;;;;;;;5.13;2.08;;;;;;;18.89;77.62;101368.88;4972223;28;20428;-66
2022/08/28 07:04:53;;;;;;;8.13;1.73;;;;;;;18.95;77.54;101370.06;4955552;28;20023;-64
2022/08/28 07:07:20;;;;;;;2.33;1.20;;;;;;;18.93;77.32;101383.88;4972847;28;20027;-65
2022/08/28 07:09:46;;;;;;;2.65;1.30;;;;;;;18.90;77.28;101376.03;4955156;28;20034;-65
2022/08/28 07:12:16;;;;;;;3.97;1.77;;;;;;;19.05;76.88;101375.41;4972413;28;20037;-64
2022/08/28 07:14:42;;;;;;;8.77;1.98;;;;;;;18.95;76.98;101386.44;4972937;28;20042;-64
2022/08/28 07:17:09;;;;;;;5.65;2.03;;;;;;;19.05;77.02;101378.13;4955267;28;20161;-66
2022/08/28 07:19:35;;;;;;;3.92;2.08;;;;;;;19.04;76.95;101395.50;4973094;28;20037;-65
2022/08/28 07:22:00;;;;;;;5.07;1.35;;;;;;;19.02;77.09;101384.78;4971203;28;20030;-66
2022/08/28 07:24:28;;;;;;;4.60;1.60;;;;;;;19.00;77.40;101383.25;4972742;28;20050;-66
2022/08/28 07:26:54;;;;;;;4.50;1.55;;;;;;;19.04;76.91;101390.91;4957550;28;20512;-65
2022/08/28 07:29:20;;;;;;;9.00;2.00;;;;;;;19.04;77.35;101390.91;4975712;28;20031;-65
2022/08/28 07:31:48;;;;;;;7.97;1.88;;;;;;;19.02;77.62;101386.66;4958659;28;20038;-65
2022/08/28 07:34:15;;;;;;;6.15;2.13;;;;;;;19.02;77.89;101397.53;4958316;28;20031;-64
2022/08/28 07:36:42;;;;;;;5.00;2.20;;;;;;;19.05;77.84;101391.75;4958564;28;20071;-64
2022/08/28 07:39:10;;;;;;;6.60;1.85;;;;;;;19.16;77.42;101402.41;4958044;28;20037;-65
2022/08/28 07:41:38;;;;;;;4.78;1.83;;;;;;;19.09;77.32;101404.03;4975805;28;20031;-65
2022/08/28 07:46:53;;;;;;;5.28;1.77;;;;;;;19.07;77.83;101400.63;4975269;28;20038;-64
2022/08/28 07:49:18;;;;;;;5.38;1.85;;;;;;;19.19;77.62;101415.69;4975457;28;20046;-65
2022/08/28 07:51:44;;;;;;;7.90;2.53;;;;;;;18.95;77.78;101416.41;4975284;28;20038;-64
2022/08/28 07:54:10;;;;;;;3.63;1.55;;;;;;;18.96;78.06;101411.81;4957649;28;20546;-64
2022/08/28 07:56:39;;;;;;;3.78;1.70;;;;;;;18.94;77.98;101410.09;4975517;28;20037;-65
2022/08/28 07:59:06;;;;;;;4.03;2.10;;;;;;;18.96;77.99;101409.06;4974885;28;20041;-64
2022/08/28 08:01:38;;;;;;;6.15;2.20;;;;;;;19.00;77.92;101433.13;4957792;28;20037;-65
2022/08/28 08:04:06;;;;;;;6.82;2.08;;;;;;;19.10;77.21;101417.50;4957756;28;20033;-64
2022/08/28 08:06:33;;;;;;;4.43;1.40;;;;;;;19.09;77.17;101420.41;4957850;28;20031;-65
2022/08/28 08:08:59;;;;;;;5.75;2.00;;;;;;;19.07;76.86;101422.44;4957189;28;20038;-67
2022/08/28 08:11:25;;;;;;;5.60;1.73;;;;;;;18.97;77.30;101421.69;4974834;28;20058;-67
2022/08/28 08:13:53;;;;;;;4.07;1.70;;;;;;;19.02;77.72;101422.06;4975003;28;20037;-66
2022/08/28 08:16:23;;;;;;;6.03;2.55;;;;;;;19.21;76.95;101408.19;4975034;28;20061;-64
2022/08/28 08:18:50;;;;;;;3.45;1.73;;;;;;;19.16;76.73;101422.31;4957314;28;20031;-64
2022/08/28 08:21:18;;;;;;;6.28;1.77;;;;;;;19.09;76.76;101414.94;4974604;28;20518;-65
2022/08/28 08:23:45;;;;;;;6.60;1.45;;;;;;;19.07;77.11;101428.75;4957274;28;20037;-66
2022/08/28 08:26:15;;;;;;;4.43;1.88;;;;;;;19.23;76.67;101427.97;4957090;28;20054;-65
2022/08/28 08:28:41;;;;;;;5.18;1.92;;;;;;;19.17;76.28;101443.13;4957154;28;20488;-64
2022/08/28 08:31:08;;;;;;;3.95;1.48;;;;;;;19.11;75.95;101434.72;4974115;28;20494;-64
2022/08/28 08:33:37;;;;;;;7.95;1.90;;;;;;;19.17;76.08;101437.66;4974723;28;20038;-65
2022/08/28 08:36:06;;;;;;;3.80;1.75;;;;;;;19.30;75.75;101434.47;4956440;28;20506;-64
2022/08/28 08:38:33;;;;;;;4.85;2.03;;;;;;;19.28;76.01;101438.38;4957179;28;20388;-65
2022/08/28 08:41:00;;;;;;;4.00;1.13;;;;;;;19.17;75.90;101447.72;4974565;28;20042;-64
2022/08/28 08:43:30;;;;;;;3.83;1.20;;;;;;;19.21;76.20;101451.81;4974692;28;20063;-64
2022/08/28 08:45:56;;;;;;;7.30;2.85;;;;;;;19.17;76.21;101444.97;4957106;28;20388;-64
2022/08/28 08:48:34;;;;;;;2.50;1.50;;;;;;;19.48;74.97;101443.44;4974139;28;20039;-64
2022/08/28 08:51:10;;;;;;;6.78;1.88;;;;;;;19.40;74.28;101450.72;4956479;28;20026;-65
2022/08/28 08:54:10;;;;;;;3.30;1.10;;;;;;;19.32;74.84;101432.47;4974342;28;20035;-65
2022/08/28 08:56:38;;;;;;;4.15;1.77;;;;;;;19.43;74.09;101432.13;4926045;28;20097;-65
2022/08/28 08:59:09;;;;;;;2.70;1.67;;;;;;;19.33;74.46;101434.16;4973614;28;20476;-65
2022/08/28 09:01:55;;;;;;;2.75;1.40;;;;;;;19.31;74.63;101441.63;4956851;28;20031;-65
2022/08/28 09:04:54;;;;;;;3.38;1.58;;;;;;;19.30;74.34;101434.47;4973653;28;20493;-64
2022/08/28 09:07:38;;;;;;;3.53;1.40;;;;;;;19.10;75.67;101442.03;4956095;28;20031;-65
2022/08/28 09:10:11;;;;;;;4.28;1.58;;;;;;;18.83;77.00;101448.53;4973950;28;20038;-65
2022/08/28 09:13:04;;;;;;;3.55;1.67;;;;;;;18.62;77.47;101445.25;4973980;28;20376;-65
2022/08/28 09:15:33;;;;;;;4.18;1.65;;;;;;;18.60;78.23;101441.84;4967834;28;20169;-66
2022/08/28 09:18:10;;;;;;;4.72;1.70;;;;;;;18.64;77.90;101448.69;4973358;28;20043;-65
2022/08/28 09:20:36;;;;;;;7.85;2.03;;;;;;;18.62;77.57;101448.84;4956426;28;20027;-65
2022/08/28 09:23:02;;;;;;;4.25;1.55;;;;;;;18.50;77.77;101462.88;4973455;28;20371;-64
2022/08/28 09:25:48;;;;;;;4.53;2.05;;;;;;;18.57;78.21;101466.66;4973720;28;20392;-65
2022/08/28 09:28:36;;;;;;;4.80;1.92;;;;;;;18.58;77.03;101446.59;4956144;28;20061;-65
2022/08/28 09:31:32;;;;;;;3.55;1.23;;;;;;;18.60;77.18;101436.38;4973174;28;20469;-64
2022/08/28 09:34:22;;;;;;;4.63;2.13;;;;;;;18.47;77.31;101431.34;4956135;28;20491;-65
2022/08/28 09:36:49;;;;;;;5.82;2.22;;;;;;;18.52;77.46;101431.75;4973311;28;20042;-65
2022/08/28 09:39:29;;;;;;;4.80;1.55;;;;;;;18.55;77.25;101434.16;4973480;28;20615;-65
2022/08/28 09:45:15;;;;;;;7.18;1.77;;;;;;;18.60;76.63;101430.94;4973101;28;20110;-65
2022/08/28 09:47:43;;;;;;;4.00;1.20;;;;;;;18.57;76.61;101436.72;4972855;28;20354;-64
2022/08/28 09:50:31;;;;;;;3.28;1.48;;;;;;;18.53;77.05;101449.81;4971206;28;20034;-65
2022/08/28 09:53:10;;;;;;;5.95;1.65;;;;;;;18.45;78.10;101432.53;4955413;28;20186;-65
2022/08/28 09:55:51;;;;;;;2.97;1.35;;;;;;;18.28;78.42;101448.72;4973256;28;20035;-65
2022/08/28 09:58:21;;;;;;;5.03;1.52;;;;;;;18.23;79.10;101451.06;4971478;28;20035;-64
2022/08/28 10:01:09;;;;;;;7.03;1.77;;;;;;;18.31;78.68;101450.31;4972275;28;20136;-65
2022/08/28 10:04:27;;;;;;;5.25;1.65;;;;;;;18.42;77.64;101454.63;4954994;28;20046;-65
2022/08/28 10:06:59;;;;;;;6.13;2.05;;;;;;;18.39;78.50;101465.84;4952282;28;20146;-64
2022/08/28 10:09:37;;;;;;;4.22;1.50;;;;;;;18.19;77.97;101467.88;4972774;28;20039;-66
2022/08/28 10:12:12;;;;;;;5.55;1.98;;;;;;;18.15;78.96;101470.03;4971014;28;20034;-65
2022/08/28 10:14:55;;;;;;;3.80;1.27;;;;;;;18.13;79.01;101469.31;4972687;28;20037;-64
2022/08/28 10:17:50;;;;;;;2.92;1.50;;;;;;;18.07;78.65;101478.13;4954812;28;20035;-64
2022/08/28 10:20:34;;;;;;;5.70;1.33;;;;;;;18.02;79.02;101475.00;4972372;28;20547;-65
2022/08/28 10:23:16;;;;;;;4.97;1.65;;;;;;;18.10;78.72;101488.69;4971458;28;20075;-66
2022/08/28 10:25:45;;;;;;;3.53;1.13;;;;;;;17.95;78.89;101491.06;4972648;28;20047;-64
2022/08/28 10:28:19;;;;;;;7.38;1.90;;;;;;;17.84;78.62;101488.59;4972544;28;20034;-65
2022/08/28 10:31:19;;;;;;;8.65;1.42;;;;;;;17.81;78.70;101488.03;4970771;28;20042;-63
2022/08/28 10:34:03;;;;;;;6.47;1.85;;;;;;;17.91;78.53;101491.53;4972838;28;20130;-65
2022/08/28 10:36:31;;;;;;;2.72;1.27;;;;;;;17.89;78.46;101485.41;4972575;28;20027;-64
2022/08/28 10:39:32;;;;;;;2.60;1.30;;;;;;;17.85;78.54;101492.16;4954648;28;20050;-66
2022/08/28 10:42:02;;;;;;;5.15;1.77;;;;;;;17.98;77.98;101490.78;4972957;28;20090;-64
2022/08/28 10:44:47;;;;;;;4.30;1.38;;;;;;;17.88;78.00;101497.28;4972712;28;20033;-64
2022/08/28 10:47:14;;;;;;;5.43;1.60;;;;;;;17.94;77.20;101488.50;4972101;28;20054;-66
2022/08/28 10:49:43;;;;;;;3.97;1.52;;;;;;;17.90;76.99;101487.09;4954791;28;20035;-64
2022/08/28 10:52:16;;;;;;;6.15;1.83;;;;;;;17.93;77.57;101500.41;4972160;28;20455;-63
2022/08/28 10:55:11;;;;;;;3.75;1.40;;;;;;;17.87;77.56;101507.31;4972389;28;20057;-65
2022/08/28 10:58:07;;;;;;;3.05;1.63;;;;;;;17.73;77.55;101508.66;4954631;28;20502;-63
2022/08/28 11:00:34;;;;;;;3.45;0.95;;;;;;;17.74;77.39;101499.50;4945095;28;20039;-66
2022/08/28 11:03:05;;;;;;;5.15;1.70;;;;;;;17.80;77.57;101487.16;4957554;28;20041;-64
2022/08/28 11:05:35;;;;;;;5.38;1.20;;;;;;;17.84;77.43;101499.47;4974424;28;20427;-65
2022/08/28 11:08:06;;;;;;;5.40;1.00;;;;;;;17.93;77.04;101508.56;4958522;28;20054;-64
2022/08/28 11:10:31;;;;;;;3.22;1.30;;;;;;;17.90;77.69;101504.28;4958622;28;20042;-64
2022/08/28 11:12:57;;;;;;;3.53;1.15;;;;;;;17.74;77.96;101510.38;4974329;28;20042;-65
2022/08/28 11:15:26;;;;;;;6.32;1.70;;;;;;;17.73;78.13;101508.66;4975663;28;20078;-65
2022/08/28 11:17:55;;;;;;;3.95;1.50;;;;;;;17.76;78.11;101515.66;4975480;28;20027;-63
2022/08/28 11:20:27;;;;;;;5.22;1.67;;;;;;;17.72;77.80;101517.84;4974305;28;20035;-64
2022/08/28 11:23:09;;;;;;;2.88;1.38;;;;;;;17.79;77.54;101530.81;4957741;28;20038;-64
2022/08/28 11:25:49;;;;;;;2.38;1.00;;;;;;;17.66;78.00;101529.31;4975221;28;20531;-64
2022/08/28 11:28:21;;;;;;;8.32;2.17;;;;;;;17.70;78.02;101525.31;4958338;28;20039;-64
2022/08/28 11:31:11;;;;;;;6.55;1.45;;;;;;;17.65;77.72;101532.19;4975449;28;20042;-65
2022/08/28 11:33:42;;;;;;;4.55;1.27;;;;;;;17.43;78.45;101544.25;4975255;28;20069;-65
2022/08/28 11:36:18;;;;;;;2.25;1.30;;;;;;;17.26;79.09;101535.00;4958011;28;20035;-66
2022/08/28 11:38:45;;;;;;;6.07;1.35;;;;;;;17.25;79.00;101535.16;4973547;28;20034;-66
2022/08/28 11:41:32;;;;;;;7.97;1.20;;;;;;;17.25;78.74;101551.47;4973742;28;20467;-63
2022/08/28 11:44:07;;;;;;;5.18;1.50;;;;;;;17.18;79.36;101553.06;4975442;28;20029;-64